KEWK/EWK METAR and TAF weather

Enter ICAO airport designator
Station Type Date Time Source
KEWK METAR 2019/07/17 12:56 UTC NOAA

KEWK 171256Z AUTO 20014KT 10SM BKN120 27/22 A2990 RMK AO2 SLP106 T02720222


Station Type Date Time Source
KEWK Decoded METAR 2019/07/17 12:56 UTC NOAA

Newton, Newton City/County Airport, KS, United States (KEWK) 38-03N 097-17W
Jul 17, 2019 - 08:56 AM EDT / 2019.07.17 1256 UTC
Wind: from the SSW (200 degrees) at 16 MPH (14 KT):0
Visibility: 10 mile(s):0
Sky conditions: mostly cloudy
Temperature: 81.0 F (27.2 C)
Dew Point: 72.0 F (22.2 C)
Relative Humidity: 74%
Pressure (altimeter): 29.9 in. Hg (1012 hPa)
ob: KEWK 171256Z AUTO 20014KT 10SM BKN120 27/22 A2990 RMK AO2 SLP106 T02720222
cycle: 13

Station Type Date Time Source
KEWK TAF UTC NOAA

Error!

Example: see airport list